createdAt,value
2018-10-05T00:01:23.572Z,81.59
2018-10-05T00:03:51.956Z,81.33
2018-10-05T00:06:20.686Z,81.77
2018-10-05T00:08:49.070Z,81.45
2018-10-05T00:11:17.672Z,81.25
2018-10-05T00:13:46.217Z,81.48
2018-10-05T00:16:14.927Z,81.60
2018-10-05T00:18:43.325Z,81.48
2018-10-05T00:21:11.830Z,81.94
2018-10-05T00:23:40.226Z,81.67
2018-10-05T00:26:08.676Z,81.63
2018-10-05T00:28:37.314Z,81.64
2018-10-05T00:31:05.976Z,81.60
2018-10-05T00:33:34.416Z,81.53
2018-10-05T00:36:02.982Z,81.34
2018-10-05T00:38:31.393Z,81.62
2018-10-05T00:41:01.103Z,81.65
2018-10-05T00:43:30.747Z,81.58
2018-10-05T00:45:59.210Z,81.28
2018-10-05T00:48:27.646Z,81.38
2018-10-05T00:50:56.439Z,81.53
2018-10-05T00:53:24.887Z,81.39
2018-10-05T00:55:53.313Z,81.26
2018-10-05T00:58:21.940Z,81.11
2018-10-05T01:00:50.440Z,81.36
2018-10-05T01:03:18.998Z,81.40
2018-10-05T01:05:47.903Z,81.38
2018-10-05T01:08:16.363Z,81.60
2018-10-05T01:10:44.774Z,81.78
2018-10-05T01:13:13.386Z,81.31
2018-10-05T01:15:41.842Z,81.31
2018-10-05T01:18:10.530Z,81.38
2018-10-05T01:20:39.386Z,81.21
2018-10-05T01:23:07.795Z,81.18
2018-10-05T01:25:36.182Z,81.62
2018-10-05T01:28:04.724Z,81.43
2018-10-05T01:30:33.143Z,81.34
2018-10-05T01:33:01.559Z,81.21
2018-10-05T01:35:30.371Z,81.40
2018-10-05T01:37:58.794Z,81.40
2018-10-05T01:40:27.207Z,81.04
2018-10-05T01:42:56.010Z,81.43
2018-10-05T01:45:24.421Z,81.68
2018-10-05T01:47:52.878Z,81.24
2018-10-05T01:50:21.806Z,81.26
2018-10-05T01:52:50.509Z,81.47
2018-10-05T01:55:18.918Z,81.15
2018-10-05T01:57:47.459Z,81.00
2018-10-05T02:00:16.179Z,81.42
2018-10-05T02:02:44.570Z,81.41
2018-10-05T02:05:13.597Z,80.92
2018-10-05T02:07:41.993Z,81.67
2018-10-05T02:10:10.423Z,81.28
2018-10-05T02:12:39.147Z,81.47
2018-10-05T02:15:07.583Z,81.29
2018-10-05T02:17:35.979Z,81.81
2018-10-05T02:20:04.530Z,81.35
2018-10-05T02:22:32.935Z,81.26
2018-10-05T02:25:01.331Z,81.21
2018-10-05T02:27:30.287Z,81.41
2018-10-05T02:29:58.663Z,81.76
2018-10-05T02:32:33.764Z,81.44
2018-10-05T02:35:02.251Z,81.37
2018-10-05T02:37:30.659Z,81.10
2018-10-05T02:39:59.175Z,81.08
2018-10-05T02:42:27.598Z,81.46
2018-10-05T02:44:56.022Z,81.41
2018-10-05T02:47:24.619Z,81.30
2018-10-05T02:49:53.026Z,81.39
2018-10-05T02:52:21.462Z,81.19
2018-10-05T02:54:49.947Z,81.19
2018-10-05T02:57:18.351Z,81.23
2018-10-05T02:59:46.752Z,81.28
2018-10-05T03:02:27.466Z,81.01
2018-10-05T03:04:56.281Z,81.58
2018-10-05T03:07:25.923Z,80.98
2018-10-05T03:09:54.814Z,81.21
2018-10-05T03:12:23.212Z,81.39
2018-10-05T03:14:51.616Z,81.25
2018-10-05T03:17:20.222Z,81.22
2018-10-05T03:19:48.707Z,81.20
2018-10-05T03:22:17.050Z,80.90
2018-10-05T03:24:45.655Z,81.28
2018-10-05T03:27:14.079Z,81.24
2018-10-05T03:29:42.783Z,81.70
2018-10-05T03:32:11.706Z,81.54
2018-10-05T03:34:40.115Z,81.50
2018-10-05T03:37:08.847Z,81.45
2018-10-05T03:39:37.366Z,81.11
2018-10-05T03:42:05.787Z,81.48
2018-10-05T03:44:34.243Z,81.06
2018-10-05T03:47:03.024Z,81.28
2018-10-05T03:49:31.535Z,81.23
2018-10-05T03:51:59.935Z,81.09
2018-10-05T03:54:28.441Z,81.14
2018-10-05T03:56:56.919Z,81.22
2018-10-05T03:59:25.343Z,81.21
2018-10-05T04:01:53.856Z,81.32
2018-10-05T04:04:22.735Z,81.47
2018-10-05T04:06:51.246Z,80.92
2018-10-05T04:09:19.921Z,81.23
2018-10-05T04:11:48.341Z,81.06
2018-10-05T04:14:16.756Z,81.26
2018-10-05T04:16:45.608Z,81.05
2018-10-05T04:19:14.071Z,81.05
2018-10-05T04:21:42.462Z,80.77
2018-10-05T04:24:11.355Z,80.50
2018-10-05T04:26:39.894Z,80.55
2018-10-05T04:29:08.291Z,80.63
2018-10-05T04:31:36.921Z,80.56
2018-10-05T04:34:05.364Z,80.88
2018-10-05T04:36:33.787Z,80.32
2018-10-05T04:39:02.489Z,80.44
2018-10-05T04:41:30.905Z,80.29
2018-10-05T04:43:59.631Z,79.85
2018-10-05T04:46:28.155Z,80.01
2018-10-05T04:48:56.570Z,79.49
2018-10-05T04:51:25.424Z,79.36
2018-10-05T04:53:54.452Z,79.43
2018-10-05T04:56:22.966Z,79.37
2018-10-05T04:58:51.659Z,79.15
2018-10-05T05:01:20.166Z,79.05
2018-10-05T05:03:48.600Z,78.70
2018-10-05T05:06:17.486Z,78.49
2018-10-05T05:08:46.780Z,78.36
2018-10-05T05:11:15.647Z,78.08
2018-10-05T05:13:44.070Z,78.03
2018-10-05T05:16:12.826Z,77.98
2018-10-05T05:18:41.238Z,78.08
2018-10-05T05:21:09.635Z,77.97
2018-10-05T05:23:38.267Z,77.83
2018-10-05T05:26:06.682Z,77.93
2018-10-05T05:28:35.078Z,78.04
2018-10-05T05:31:03.590Z,77.77
2018-10-05T05:33:32.100Z,77.95
2018-10-05T05:36:00.566Z,77.76
2018-10-05T05:38:29.442Z,77.87
2018-10-05T05:40:57.857Z,77.56
2018-10-05T05:43:26.292Z,77.59
2018-10-05T05:45:54.802Z,77.63
2018-10-05T05:48:23.318Z,77.49
2018-10-05T05:50:51.754Z,77.68
2018-10-05T05:53:20.739Z,77.54
2018-10-05T05:55:49.129Z,77.54
2018-10-05T05:58:17.523Z,77.52
2018-10-05T06:00:46.205Z,77.53
2018-10-05T06:03:14.727Z,77.35
2018-10-05T06:05:43.201Z,77.30
2018-10-05T06:08:11.882Z,77.22
2018-10-05T06:10:40.263Z,77.34
2018-10-05T06:13:08.921Z,77.10
2018-10-05T06:15:37.576Z,77.14
2018-10-05T06:18:06.023Z,77.32
2018-10-05T06:20:34.670Z,77.07
2018-10-05T06:23:03.322Z,77.01
2018-10-05T06:25:31.766Z,76.81
2018-10-05T06:28:00.194Z,76.79
2018-10-05T06:30:29.148Z,76.76
2018-10-05T06:32:57.544Z,76.73
2018-10-05T06:35:25.958Z,76.58
2018-10-05T06:37:54.527Z,76.63
2018-10-05T06:40:22.971Z,76.49
2018-10-05T06:42:51.378Z,76.49
2018-10-05T06:45:20.278Z,76.58
2018-10-05T06:47:48.677Z,76.34
2018-10-05T06:50:17.076Z,76.50
2018-10-05T06:52:45.719Z,76.07
2018-10-05T06:55:14.126Z,76.14
2018-10-05T06:57:42.518Z,75.80
2018-10-05T07:00:11.027Z,75.65
2018-10-05T07:02:39.434Z,75.34
2018-10-05T07:05:07.915Z,75.13
2018-10-05T07:07:36.484Z,74.57
2018-10-05T07:10:05.234Z,74.46
2018-10-05T07:12:33.694Z,74.29
2018-10-05T07:15:02.470Z,74.45
2018-10-05T07:17:30.899Z,74.16
2018-10-05T07:19:59.312Z,74.20
2018-10-05T07:22:28.130Z,74.24
2018-10-05T07:24:56.543Z,74.25
2018-10-05T07:27:25.108Z,73.97
2018-10-05T07:29:53.678Z,74.38
2018-10-05T07:32:22.190Z,74.07
2018-10-05T07:34:50.747Z,73.94
2018-10-05T07:37:19.286Z,74.09
2018-10-05T07:39:47.674Z,73.73
2018-10-05T07:42:16.075Z,73.65
2018-10-05T07:44:44.753Z,73.71
2018-10-05T07:47:13.347Z,74.02
2018-10-05T07:49:41.842Z,73.68
2018-10-05T07:52:10.778Z,73.64
2018-10-05T07:54:39.202Z,73.46
2018-10-05T07:57:07.708Z,73.33
2018-10-05T07:59:36.239Z,73.57
2018-10-05T08:02:04.671Z,73.23
2018-10-05T08:04:33.166Z,73.30
2018-10-05T08:07:01.975Z,73.38
2018-10-05T08:09:30.434Z,73.11
2018-10-05T08:11:58.967Z,73.12
2018-10-05T08:14:27.580Z,72.82
2018-10-05T08:16:56.133Z,72.48
2018-10-05T08:19:24.559Z,72.55
2018-10-05T08:21:53.163Z,71.80
2018-10-05T08:24:21.561Z,71.59
2018-10-05T08:26:49.958Z,71.13
2018-10-05T08:29:25.154Z,71.19
2018-10-05T08:31:53.575Z,70.67
2018-10-05T08:34:22.832Z,70.98
2018-10-05T08:36:51.662Z,70.75
2018-10-05T08:39:20.068Z,70.78
2018-10-05T08:41:48.491Z,70.42
2018-10-05T08:44:17.284Z,70.70
2018-10-05T08:46:45.714Z,70.49
2018-10-05T08:49:14.127Z,70.64
2018-10-05T08:51:42.996Z,70.47
2018-10-05T08:54:11.418Z,70.66
2018-10-05T08:56:39.843Z,70.62
2018-10-05T08:59:08.486Z,69.98
2018-10-05T09:01:36.902Z,70.10
2018-10-05T09:04:05.362Z,69.97
2018-10-05T09:06:33.908Z,70.37
2018-10-05T09:09:02.381Z,69.77
2018-10-05T09:11:31.215Z,69.47
2018-10-05T09:13:59.850Z,68.48
2018-10-05T09:16:28.275Z,68.58
2018-10-05T09:18:56.891Z,68.47
2018-10-05T09:21:25.490Z,68.45
2018-10-05T09:23:54.056Z,67.89
2018-10-05T09:26:22.479Z,67.76
2018-10-05T09:28:51.436Z,68.24
2018-10-05T09:31:19.825Z,67.60
2018-10-05T09:33:48.276Z,67.56
2018-10-05T09:36:16.843Z,66.18
2018-10-05T09:38:45.815Z,66.09
2018-10-05T09:41:14.690Z,64.59
2018-10-05T09:43:43.223Z,64.19
2018-10-05T09:46:11.916Z,63.25
2018-10-05T09:48:40.330Z,62.71
2018-10-05T09:51:09.207Z,60.46
2018-10-05T09:53:37.604Z,60.95
2018-10-05T09:56:07.036Z,60.93
2018-10-05T09:58:35.790Z,60.15
2018-10-05T10:01:09.375Z,57.64
2018-10-05T10:03:38.075Z,57.98
2018-10-05T10:06:07.226Z,57.49
2018-10-05T10:08:35.650Z,56.13
2018-10-05T10:11:04.302Z,55.62
2018-10-05T10:13:32.847Z,55.75
2018-10-05T10:16:01.885Z,54.54
2018-10-05T10:18:30.627Z,53.86
2018-10-05T10:20:59.217Z,54.21
2018-10-05T10:23:27.659Z,52.29
2018-10-05T10:25:56.384Z,52.26
2018-10-05T10:28:24.839Z,51.37
2018-10-05T10:31:00.485Z,50.21
2018-10-05T10:33:29.038Z,49.47
2018-10-05T10:35:57.466Z,48.83
2018-10-05T10:38:25.979Z,49.00
2018-10-05T10:40:54.402Z,48.99
2018-10-05T10:43:23.002Z,48.49
2018-10-05T10:45:51.670Z,49.59
2018-10-05T10:48:21.211Z,48.88
2018-10-05T10:50:49.581Z,48.82
2018-10-05T10:53:18.439Z,50.50
2018-10-05T10:55:46.859Z,50.47
2018-10-05T10:58:15.299Z,50.68
2018-10-05T11:00:44.158Z,49.67
2018-10-05T11:03:12.576Z,50.07
2018-10-05T11:05:41.262Z,49.48
2018-10-05T11:08:09.776Z,49.88
2018-10-05T11:10:38.166Z,49.26
2018-10-05T11:13:06.589Z,50.13
2018-10-05T11:15:35.378Z,49.08
2018-10-05T11:18:04.031Z,47.35
2018-10-05T11:20:32.414Z,48.58
2018-10-05T11:23:02.071Z,47.47
2018-10-05T11:25:30.463Z,47.50
2018-10-05T11:27:58.862Z,46.98
2018-10-05T11:30:27.587Z,47.64
2018-10-05T11:32:56.638Z,47.30
2018-10-05T11:35:25.047Z,47.96
2018-10-05T11:37:53.600Z,48.09
2018-10-05T11:40:22.210Z,48.45
2018-10-05T11:42:50.883Z,48.27
2018-10-05T11:45:19.493Z,48.70
2018-10-05T11:47:47.908Z,48.41
2018-10-05T11:50:16.526Z,48.26
2018-10-05T11:52:45.238Z,48.41
2018-10-05T11:55:13.636Z,47.98
2018-10-05T11:57:42.115Z,47.92
2018-10-05T12:00:11.113Z,47.30
2018-10-05T12:02:39.604Z,46.39
2018-10-05T12:05:08.056Z,46.26
2018-10-05T12:07:36.547Z,46.23
2018-10-05T12:10:05.013Z,45.74
2018-10-05T12:12:33.427Z,45.03
2018-10-05T12:15:02.535Z,44.98
2018-10-05T12:17:30.983Z,44.54
2018-10-05T12:19:59.466Z,43.99
2018-10-05T12:22:28.271Z,42.31
2018-10-05T12:24:56.955Z,42.85
2018-10-05T12:27:25.403Z,42.54
2018-10-05T12:29:53.969Z,42.82
2018-10-05T12:32:22.470Z,41.86
2018-10-05T12:34:51.134Z,41.42
2018-10-05T12:37:19.781Z,41.84
2018-10-05T12:39:48.194Z,41.38
2018-10-05T12:42:16.599Z,41.02
2018-10-05T12:44:45.415Z,39.96
2018-10-05T12:47:13.862Z,40.75
2018-10-05T12:49:42.280Z,41.35
2018-10-05T12:52:11.034Z,41.87
2018-10-05T12:54:39.465Z,42.10
2018-10-05T12:57:07.892Z,43.57
2018-10-05T12:59:36.482Z,43.59
2018-10-05T13:02:04.899Z,43.93
2018-10-05T13:04:33.303Z,43.91
2018-10-05T13:07:02.235Z,44.14
2018-10-05T13:09:30.719Z,44.76
2018-10-05T13:11:59.154Z,44.08
2018-10-05T13:14:27.893Z,43.54
2018-10-05T13:16:56.394Z,43.31
2018-10-05T13:19:24.794Z,42.94
2018-10-05T13:21:53.339Z,41.45
2018-10-05T13:24:21.737Z,40.55
2018-10-05T13:26:50.298Z,40.73
2018-10-05T13:29:19.132Z,40.11
2018-10-05T13:31:47.531Z,40.31
2018-10-05T13:34:16.083Z,40.86
2018-10-05T13:36:44.960Z,40.87
2018-10-05T13:39:13.381Z,41.65
2018-10-05T13:41:41.930Z,40.83
2018-10-05T13:44:10.566Z,41.35
2018-10-05T13:46:39.010Z,41.49
2018-10-05T13:49:07.446Z,41.99
2018-10-05T13:51:36.997Z,42.19
2018-10-05T13:54:06.062Z,41.79
2018-10-05T13:56:34.954Z,42.38
2018-10-05T13:59:03.571Z,42.77
2018-10-05T14:01:31.959Z,42.50
2018-10-05T14:04:00.366Z,42.74
2018-10-05T14:06:28.875Z,42.64
2018-10-05T14:08:57.306Z,42.70
2018-10-05T14:11:25.735Z,42.90
2018-10-05T14:13:54.490Z,43.40
2018-10-05T14:16:23.018Z,43.94
2018-10-05T14:18:51.833Z,44.51
2018-10-05T14:21:20.425Z,45.35
2018-10-05T14:23:49.146Z,45.78
2018-10-05T14:26:17.604Z,45.94
2018-10-05T14:28:46.892Z,45.91
2018-10-05T14:31:15.656Z,46.14
2018-10-05T14:33:44.183Z,46.39
2018-10-05T14:36:12.686Z,46.61
2018-10-05T14:38:41.295Z,46.56
2018-10-05T14:41:09.737Z,46.32
2018-10-05T14:43:38.966Z,46.95
2018-10-05T14:46:07.494Z,46.59
2018-10-05T14:48:35.942Z,46.68
2018-10-05T14:51:04.562Z,47.03
2018-10-05T14:53:32.974Z,47.46
2018-10-05T14:56:01.429Z,47.42
2018-10-05T14:58:30.324Z,47.85
2018-10-05T15:00:58.719Z,48.04
2018-10-05T15:03:27.186Z,47.95
2018-10-05T15:05:55.994Z,48.30
2018-10-05T15:08:24.410Z,48.73
2018-10-05T15:10:52.803Z,49.05
2018-10-05T15:13:21.776Z,49.63
2018-10-05T15:15:50.210Z,49.46
2018-10-05T15:18:18.844Z,50.27
2018-10-05T15:20:47.886Z,50.55
2018-10-05T15:23:16.313Z,51.07
2018-10-05T15:25:44.974Z,50.83
2018-10-05T15:28:13.644Z,51.42
2018-10-05T15:30:42.319Z,51.16
2018-10-05T15:33:12.139Z,51.64
2018-10-05T15:35:41.470Z,51.94
2018-10-05T15:38:10.122Z,52.13
2018-10-05T15:40:39.039Z,52.37
2018-10-05T15:43:08.481Z,52.71
2018-10-05T15:45:37.003Z,52.97
2018-10-05T15:48:05.421Z,53.30
2018-10-05T15:50:34.179Z,53.74
2018-10-05T15:53:02.756Z,53.56
2018-10-05T15:55:31.195Z,54.13
2018-10-05T15:57:59.907Z,54.25
2018-10-05T16:00:28.331Z,54.56
2018-10-05T16:02:56.843Z,54.91
2018-10-05T16:05:25.422Z,54.99
2018-10-05T16:07:53.875Z,55.38
2018-10-05T16:10:22.304Z,55.48
2018-10-05T16:12:51.149Z,55.87
2018-10-05T16:15:19.581Z,55.91
2018-10-05T16:17:48.002Z,55.98
2018-10-05T16:20:16.577Z,55.99
2018-10-05T16:22:45.038Z,55.83
2018-10-05T16:25:13.479Z,55.53
2018-10-05T16:27:42.254Z,55.19
2018-10-05T16:30:10.738Z,54.95
2018-10-05T16:32:39.290Z,54.82
2018-10-05T16:35:07.943Z,54.65
2018-10-05T16:37:36.385Z,54.79
2018-10-05T16:40:04.887Z,54.80
2018-10-05T16:42:33.587Z,54.82
2018-10-05T16:45:02.002Z,54.51
2018-10-05T16:47:30.497Z,54.71
2018-10-05T16:49:59.135Z,54.96
2018-10-05T16:52:27.497Z,55.09
2018-10-05T16:54:55.906Z,55.47
2018-10-05T16:57:24.754Z,55.53
2018-10-05T16:59:53.666Z,55.68
2018-10-05T17:02:22.699Z,56.31
2018-10-05T17:04:51.919Z,56.30
2018-10-05T17:07:20.334Z,56.79
2018-10-05T17:09:51.567Z,57.02
2018-10-05T17:12:20.138Z,57.27
2018-10-05T17:14:48.538Z,57.32
2018-10-05T17:17:17.050Z,57.59
2018-10-05T17:19:45.508Z,57.29
2018-10-05T17:22:13.943Z,56.93
2018-10-05T17:24:42.337Z,57.41
2018-10-05T17:27:11.031Z,56.99
2018-10-05T17:29:41.267Z,56.79
2018-10-05T17:32:09.731Z,56.62
2018-10-05T17:34:38.615Z,56.21
2018-10-05T17:37:08.350Z,56.15
2018-10-05T17:39:36.764Z,55.79
2018-10-05T17:42:05.402Z,55.93
2018-10-05T17:44:33.914Z,55.75
2018-10-05T17:47:02.370Z,55.65
2018-10-05T17:49:31.034Z,55.60
2018-10-05T17:51:59.458Z,55.63
2018-10-05T17:54:27.874Z,55.39
2018-10-05T17:56:56.506Z,55.49
2018-10-05T17:59:24.928Z,55.46
2018-10-05T18:01:53.395Z,55.58
2018-10-05T18:04:22.026Z,55.46
2018-10-05T18:06:50.714Z,55.77
2018-10-05T18:09:19.119Z,55.41
2018-10-05T18:11:48.073Z,55.72
2018-10-05T18:14:16.528Z,56.05
2018-10-05T18:16:44.938Z,55.81
2018-10-05T18:19:13.739Z,56.08
2018-10-05T18:21:42.302Z,56.01
2018-10-05T18:24:11.471Z,55.96
2018-10-05T18:26:40.708Z,56.50
2018-10-05T18:29:09.317Z,56.39
2018-10-05T18:31:37.790Z,56.47
2018-10-05T18:34:06.599Z,56.78
2018-10-05T18:36:35.199Z,56.32
2018-10-05T18:39:04.538Z,56.67
2018-10-05T18:41:33.071Z,56.66
2018-10-05T18:44:01.564Z,56.93
2018-10-05T18:46:30.443Z,57.24
2018-10-05T18:48:59.148Z,57.07
2018-10-05T18:51:27.586Z,57.14
2018-10-05T18:53:56.027Z,57.21
2018-10-05T18:56:35.840Z,57.59
2018-10-05T18:59:05.141Z,57.67
2018-10-05T19:01:33.628Z,57.77
2018-10-05T19:04:02.511Z,58.20
2018-10-05T19:06:30.922Z,58.65
2018-10-05T19:08:59.786Z,58.75
2018-10-05T19:11:28.523Z,58.80
2018-10-05T19:13:56.972Z,59.09
2018-10-05T19:16:26.325Z,59.09
2018-10-05T19:18:54.878Z,59.35
2018-10-05T19:21:23.354Z,58.59
2018-10-05T19:23:51.807Z,58.51
2018-10-05T19:26:23.094Z,58.44
2018-10-05T19:28:51.547Z,57.99
2018-10-05T19:31:19.975Z,57.85
2018-10-05T19:33:49.126Z,57.22
2018-10-05T19:36:18.568Z,57.04
2018-10-05T19:38:47.180Z,56.14
2018-10-05T19:41:16.317Z,56.02
2018-10-05T19:43:44.730Z,55.74
2018-10-05T19:46:13.167Z,55.85
2018-10-05T19:48:41.867Z,55.27
2018-10-05T19:51:10.290Z,55.17
2018-10-05T19:53:39.109Z,54.50
2018-10-05T19:56:07.819Z,54.75
2018-10-05T19:58:36.251Z,54.66
2018-10-05T20:01:04.667Z,54.58
2018-10-05T20:03:33.586Z,54.49
2018-10-05T20:06:02.008Z,54.45
2018-10-05T20:08:30.479Z,54.08
2018-10-05T20:10:59.471Z,54.44
2018-10-05T20:13:27.885Z,54.49
2018-10-05T20:15:56.278Z,54.52
2018-10-05T20:18:24.858Z,54.44
2018-10-05T20:20:53.328Z,54.22
2018-10-05T20:23:21.714Z,54.64
2018-10-05T20:25:50.301Z,54.98
2018-10-05T20:28:18.729Z,55.02
2018-10-05T20:30:47.150Z,55.50
2018-10-05T20:33:15.949Z,55.75
2018-10-05T20:35:44.388Z,55.84
2018-10-05T20:38:12.824Z,56.41
2018-10-05T20:40:41.710Z,56.86
2018-10-05T20:43:10.379Z,56.97
2018-10-05T20:45:38.807Z,57.14
2018-10-05T20:48:10.465Z,57.47
2018-10-05T20:50:39.154Z,57.69
2018-10-05T20:53:07.652Z,57.68
2018-10-05T20:55:36.536Z,57.74
2018-10-05T20:58:04.969Z,57.68
2018-10-05T21:00:33.518Z,57.75
2018-10-05T21:03:08.574Z,57.53
2018-10-05T21:05:37.062Z,57.59
2018-10-05T21:08:05.522Z,57.30
2018-10-05T21:10:34.291Z,57.64
2018-10-05T21:13:02.774Z,57.72
2018-10-05T21:15:31.205Z,57.47
2018-10-05T21:17:59.935Z,57.60
2018-10-05T21:20:28.387Z,57.84
2018-10-05T21:22:56.994Z,58.02
2018-10-05T21:25:25.578Z,58.10
2018-10-05T21:27:54.007Z,58.01
2018-10-05T21:30:22.426Z,58.41
2018-10-05T21:32:51.330Z,58.62
2018-10-05T21:35:19.678Z,58.59
2018-10-05T21:37:48.095Z,59.36
2018-10-05T21:40:16.662Z,59.16
2018-10-05T21:42:45.583Z,59.30
2018-10-05T21:45:13.975Z,59.75
2018-10-05T21:47:42.459Z,59.70
2018-10-05T21:50:10.911Z,59.59
2018-10-05T21:52:39.668Z,59.77
2018-10-05T21:55:08.400Z,59.96
2018-10-05T21:57:36.859Z,59.94
2018-10-05T22:00:06.010Z,60.12
2018-10-05T22:02:35.710Z,60.47
2018-10-05T22:05:05.382Z,60.28
2018-10-05T22:07:34.095Z,60.70
2018-10-05T22:10:03.032Z,60.61
2018-10-05T22:12:31.786Z,60.99
2018-10-05T22:15:00.211Z,61.35
2018-10-05T22:17:28.966Z,61.05
2018-10-05T22:19:57.529Z,61.27
2018-10-05T22:22:25.990Z,61.75
2018-10-05T22:24:54.511Z,62.21
2018-10-05T22:27:23.063Z,62.39
2018-10-05T22:29:51.514Z,62.47
2018-10-05T22:32:20.190Z,63.30
2018-10-05T22:34:48.666Z,63.28
2018-10-05T22:37:17.109Z,63.32
2018-10-05T22:39:46.245Z,63.64
2018-10-05T22:42:14.754Z,63.63
2018-10-05T22:44:43.333Z,64.09
2018-10-05T22:47:11.995Z,64.31
2018-10-05T22:49:40.466Z,64.44
2018-10-05T22:52:08.902Z,65.00
2018-10-05T22:54:37.792Z,65.42
2018-10-05T22:57:06.374Z,65.21
2018-10-05T22:59:34.801Z,65.30
2018-10-05T23:02:03.502Z,65.43
2018-10-05T23:04:31.946Z,65.68
2018-10-05T23:07:00.403Z,65.49
2018-10-05T23:09:29.227Z,65.87
2018-10-05T23:11:57.758Z,66.09
2018-10-05T23:14:26.165Z,66.47
2018-10-05T23:16:54.697Z,66.70
2018-10-05T23:19:23.154Z,66.70
2018-10-05T23:21:51.570Z,67.20
2018-10-05T23:24:20.042Z,66.93
2018-10-05T23:26:48.543Z,66.81
2018-10-05T23:29:16.969Z,66.94
2018-10-05T23:31:45.471Z,67.22
2018-10-05T23:34:13.934Z,67.10
2018-10-05T23:36:42.339Z,67.39
2018-10-05T23:39:11.705Z,67.71
2018-10-05T23:41:40.262Z,68.22
2018-10-05T23:44:09.097Z,68.04
2018-10-05T23:46:38.029Z,68.66
2018-10-05T23:49:06.510Z,68.75
2018-10-05T23:51:35.154Z,68.51
2018-10-05T23:54:04.026Z,68.56
2018-10-05T23:56:32.581Z,68.68
2018-10-05T23:59:01.079Z,69.02
